sensor_id;sensor_type;location;lat;lon;timestamp;temperature;humidity
26408;DHT22;14583;43.604;1.364;2023-02-08T00:01:06;6.20;99.90
26408;DHT22;14583;43.604;1.364;2023-02-08T00:03:32;6.30;99.90
26408;DHT22;14583;43.604;1.364;2023-02-08T00:05:58;6.30;99.90
26408;DHT22;14583;43.604;1.364;2023-02-08T00:08:23;6.20;99.90
26408;DHT22;14583;43.604;1.364;2023-02-08T00:10:49;6.20;99.90
26408;DHT22;14583;43.604;1.364;2023-02-08T00:13:15;6.10;99.90
26408;DHT22;14583;43.604;1.364;2023-02-08T00:15:42;6.20;99.90
26408;DHT22;14583;43.604;1.364;2023-02-08T00:18:09;6.30;99.90
26408;DHT22;14583;43.604;1.364;2023-02-08T00:20:40;6.20;99.90
26408;DHT22;14583;43.604;1.364;2023-02-08T00:23:06;6.20;99.90
26408;DHT22;14583;43.604;1.364;2023-02-08T00:25:32;6.10;99.90
26408;DHT22;14583;43.604;1.364;2023-02-08T00:27:58;6.20;99.90
26408;DHT22;14583;43.604;1.364;2023-02-08T00:30:24;6.20;99.90
26408;DHT22;14583;43.604;1.364;2023-02-08T00:32:50;6.20;99.90
26408;DHT22;14583;43.604;1.364;2023-02-08T00:35:16;6.10;99.90
26408;DHT22;14583;43.604;1.364;2023-02-08T00:37:41;6.00;99.90
26408;DHT22;14583;43.604;1.364;2023-02-08T00:40:08;6.10;99.90
26408;DHT22;14583;43.604;1.364;2023-02-08T00:42:33;6.10;99.90
26408;DHT22;14583;43.604;1.364;2023-02-08T00:44:59;6.10;99.90
26408;DHT22;14583;43.604;1.364;2023-02-08T00:47:25;6.10;99.90
26408;DHT22;14583;43.604;1.364;2023-02-08T00:49:51;6.10;99.90
26408;DHT22;14583;43.604;1.364;2023-02-08T00:52:17;6.10;99.90
26408;DHT22;14583;43.604;1.364;2023-02-08T00:54:43;6.10;99.90
26408;DHT22;14583;43.604;1.364;2023-02-08T00:57:09;6.10;99.90
26408;DHT22;14583;43.604;1.364;2023-02-08T00:59:35;6.10;99.90
26408;DHT22;14583;43.604;1.364;2023-02-08T01:02:00;6.10;99.90
26408;DHT22;14583;43.604;1.364;2023-02-08T01:04:26;6.00;99.90
26408;DHT22;14583;43.604;1.364;2023-02-08T01:06:52;6.10;99.90
26408;DHT22;14583;43.604;1.364;2023-02-08T01:09:18;6.10;99.90
26408;DHT22;14583;43.604;1.364;2023-02-08T01:11:43;6.00;99.90
26408;DHT22;14583;43.604;1.364;2023-02-08T01:14:09;6.00;99.90
26408;DHT22;14583;43.604;1.364;2023-02-08T01:16:35;5.90;99.90
26408;DHT22;14583;43.604;1.364;2023-02-08T01:19:02;5.90;99.90
26408;DHT22;14583;43.604;1.364;2023-02-08T01:21:31;5.80;99.90
26408;DHT22;14583;43.604;1.364;2023-02-08T01:23:58;5.70;99.90
26408;DHT22;14583;43.604;1.364;2023-02-08T01:26:24;5.80;99.90
26408;DHT22;14583;43.604;1.364;2023-02-08T01:28:50;5.80;99.90
26408;DHT22;14583;43.604;1.364;2023-02-08T01:31:22;5.80;99.90
26408;DHT22;14583;43.604;1.364;2023-02-08T01:33:47;5.70;99.90
26408;DHT22;14583;43.604;1.364;2023-02-08T01:36:13;5.60;99.90
26408;DHT22;14583;43.604;1.364;2023-02-08T01:38:39;5.70;99.90
26408;DHT22;14583;43.604;1.364;2023-02-08T01:41:08;5.60;99.90
26408;DHT22;14583;43.604;1.364;2023-02-08T01:46:35;5.50;99.90
26408;DHT22;14583;43.604;1.364;2023-02-08T01:49:32;5.40;99.90
26408;DHT22;14583;43.604;1.364;2023-02-08T01:52:06;5.40;99.90
26408;DHT22;14583;43.604;1.364;2023-02-08T01:54:43;5.30;99.90
26408;DHT22;14583;43.604;1.364;2023-02-08T01:57:10;5.30;99.90
26408;DHT22;14583;43.604;1.364;2023-02-08T01:59:45;5.40;99.90
26408;DHT22;14583;43.604;1.364;2023-02-08T02:02:19;5.50;99.90
26408;DHT22;14583;43.604;1.364;2023-02-08T02:04:46;5.60;99.90
26408;DHT22;14583;43.604;1.364;2023-02-08T02:07:13;5.60;99.90
26408;DHT22;14583;43.604;1.364;2023-02-08T02:10:12;5.60;99.90
26408;DHT22;14583;43.604;1.364;2023-02-08T02:12:40;5.70;99.90
26408;DHT22;14583;43.604;1.364;2023-02-08T02:15:07;5.60;99.90
26408;DHT22;14583;43.604;1.364;2023-02-08T02:17:35;5.60;99.90
26408;DHT22;14583;43.604;1.364;2023-02-08T02:36:08;5.10;99.90
26408;DHT22;14583;43.604;1.364;2023-02-08T02:41:40;5.10;99.90
26408;DHT22;14583;43.604;1.364;2023-02-08T02:44:38;5.00;99.90
26408;DHT22;14583;43.604;1.364;2023-02-08T02:49:56;5.00;99.90
26408;DHT22;14583;43.604;1.364;2023-02-08T02:52:33;5.00;99.90
26408;DHT22;14583;43.604;1.364;2023-02-08T02:55:10;5.20;99.90
26408;DHT22;14583;43.604;1.364;2023-02-08T02:57:38;5.30;99.90
26408;DHT22;14583;43.604;1.364;2023-02-08T03:00:10;5.50;99.90
26408;DHT22;14583;43.604;1.364;2023-02-08T03:02:37;5.40;99.90
26408;DHT22;14583;43.604;1.364;2023-02-08T03:05:06;5.40;99.90
26408;DHT22;14583;43.604;1.364;2023-02-08T03:07:55;5.50;99.90
26408;DHT22;14583;43.604;1.364;2023-02-08T03:10:40;5.40;99.90
26408;DHT22;14583;43.604;1.364;2023-02-08T03:13:28;5.40;99.90
26408;DHT22;14583;43.604;1.364;2023-02-08T03:21:12;5.40;99.90
26408;DHT22;14583;43.604;1.364;2023-02-08T03:24:11;5.40;99.90
26408;DHT22;14583;43.604;1.364;2023-02-08T03:27:07;5.40;99.90
26408;DHT22;14583;43.604;1.364;2023-02-08T03:29:45;5.40;99.90
26408;DHT22;14583;43.604;1.364;2023-02-08T03:32:43;5.40;99.90
26408;DHT22;14583;43.604;1.364;2023-02-08T03:35:21;5.20;99.90
26408;DHT22;14583;43.604;1.364;2023-02-08T03:38:01;5.30;99.90
26408;DHT22;14583;43.604;1.364;2023-02-08T03:40:35;5.20;99.90
26408;DHT22;14583;43.604;1.364;2023-02-08T03:43:07;5.20;99.90
26408;DHT22;14583;43.604;1.364;2023-02-08T03:45:39;5.20;99.90
26408;DHT22;14583;43.604;1.364;2023-02-08T03:48:08;5.20;99.90
26408;DHT22;14583;43.604;1.364;2023-02-08T03:50:37;5.20;99.90
26408;DHT22;14583;43.604;1.364;2023-02-08T03:53:04;5.20;99.90
26408;DHT22;14583;43.604;1.364;2023-02-08T03:55:34;5.20;99.90
26408;DHT22;14583;43.604;1.364;2023-02-08T04:01:45;5.10;99.90
26408;DHT22;14583;43.604;1.364;2023-02-08T04:04:13;5.10;99.90
26408;DHT22;14583;43.604;1.364;2023-02-08T04:06:39;5.10;99.90
26408;DHT22;14583;43.604;1.364;2023-02-08T04:09:05;5.00;99.90
26408;DHT22;14583;43.604;1.364;2023-02-08T04:11:31;5.00;99.90
26408;DHT22;14583;43.604;1.364;2023-02-08T04:13:56;5.10;99.90
26408;DHT22;14583;43.604;1.364;2023-02-08T04:16:22;5.10;99.90
26408;DHT22;14583;43.604;1.364;2023-02-08T04:18:48;5.00;99.90
26408;DHT22;14583;43.604;1.364;2023-02-08T04:21:13;4.80;99.90
26408;DHT22;14583;43.604;1.364;2023-02-08T04:23:39;4.70;99.90
26408;DHT22;14583;43.604;1.364;2023-02-08T04:26:05;4.80;99.90
26408;DHT22;14583;43.604;1.364;2023-02-08T04:28:33;4.90;99.90
26408;DHT22;14583;43.604;1.364;2023-02-08T04:30:59;4.80;99.90
26408;DHT22;14583;43.604;1.364;2023-02-08T04:33:25;4.80;99.90
26408;DHT22;14583;43.604;1.364;2023-02-08T04:35:51;4.80;99.90
26408;DHT22;14583;43.604;1.364;2023-02-08T04:38:16;4.80;99.90
26408;DHT22;14583;43.604;1.364;2023-02-08T04:40:42;4.60;99.90
26408;DHT22;14583;43.604;1.364;2023-02-08T04:43:08;4.60;99.90
26408;DHT22;14583;43.604;1.364;2023-02-08T04:45:33;4.70;99.90
26408;DHT22;14583;43.604;1.364;2023-02-08T04:48:03;4.70;99.90
26408;DHT22;14583;43.604;1.364;2023-02-08T04:50:29;4.50;99.90
26408;DHT22;14583;43.604;1.364;2023-02-08T04:52:55;4.40;99.90
26408;DHT22;14583;43.604;1.364;2023-02-08T04:55:21;4.40;99.90
26408;DHT22;14583;43.604;1.364;2023-02-08T04:57:47;4.30;99.90
26408;DHT22;14583;43.604;1.364;2023-02-08T05:00:13;4.30;99.90
26408;DHT22;14583;43.604;1.364;2023-02-08T05:02:39;4.20;99.90
26408;DHT22;14583;43.604;1.364;2023-02-08T05:05:04;4.20;99.90
26408;DHT22;14583;43.604;1.364;2023-02-08T05:07:30;4.20;99.90
26408;DHT22;14583;43.604;1.364;2023-02-08T05:09:56;4.20;99.90
26408;DHT22;14583;43.604;1.364;2023-02-08T05:12:22;4.30;99.90
26408;DHT22;14583;43.604;1.364;2023-02-08T05:14:48;4.20;99.90
26408;DHT22;14583;43.604;1.364;2023-02-08T05:17:13;4.10;99.90
26408;DHT22;14583;43.604;1.364;2023-02-08T05:19:39;4.10;99.90
26408;DHT22;14583;43.604;1.364;2023-02-08T05:22:05;4.00;99.90
26408;DHT22;14583;43.604;1.364;2023-02-08T05:24:30;3.90;99.90
26408;DHT22;14583;43.604;1.364;2023-02-08T05:26:56;3.90;99.90
26408;DHT22;14583;43.604;1.364;2023-02-08T05:29:22;3.90;99.90
26408;DHT22;14583;43.604;1.364;2023-02-08T05:31:47;3.80;99.90
26408;DHT22;14583;43.604;1.364;2023-02-08T05:34:13;3.80;99.90
26408;DHT22;14583;43.604;1.364;2023-02-08T05:36:39;3.70;99.90
26408;DHT22;14583;43.604;1.364;2023-02-08T05:39:05;3.70;99.90
26408;DHT22;14583;43.604;1.364;2023-02-08T05:41:31;3.70;99.90
26408;DHT22;14583;43.604;1.364;2023-02-08T05:43:57;3.70;99.90
26408;DHT22;14583;43.604;1.364;2023-02-08T05:46:22;3.70;99.90
26408;DHT22;14583;43.604;1.364;2023-02-08T05:48:48;3.70;99.90
26408;DHT22;14583;43.604;1.364;2023-02-08T05:51:14;3.60;99.90
26408;DHT22;14583;43.604;1.364;2023-02-08T05:53:40;3.60;99.90
26408;DHT22;14583;43.604;1.364;2023-02-08T05:56:07;3.60;99.90
26408;DHT22;14583;43.604;1.364;2023-02-08T05:58:33;3.70;99.90
26408;DHT22;14583;43.604;1.364;2023-02-08T06:00:59;3.70;99.90
26408;DHT22;14583;43.604;1.364;2023-02-08T06:03:25;3.80;99.90
26408;DHT22;14583;43.604;1.364;2023-02-08T06:05:52;3.80;99.90
26408;DHT22;14583;43.604;1.364;2023-02-08T06:08:17;3.70;99.90
26408;DHT22;14583;43.604;1.364;2023-02-08T06:10:43;3.80;99.90
26408;DHT22;14583;43.604;1.364;2023-02-08T06:13:12;3.80;99.90
26408;DHT22;14583;43.604;1.364;2023-02-08T06:15:38;3.80;99.90
26408;DHT22;14583;43.604;1.364;2023-02-08T06:18:03;3.80;99.90
26408;DHT22;14583;43.604;1.364;2023-02-08T06:20:29;3.70;99.90
26408;DHT22;14583;43.604;1.364;2023-02-08T06:22:55;3.70;99.90
26408;DHT22;14583;43.604;1.364;2023-02-08T06:25:20;3.60;99.90
26408;DHT22;14583;43.604;1.364;2023-02-08T06:27:46;3.50;99.90
26408;DHT22;14583;43.604;1.364;2023-02-08T06:30:12;3.30;99.90
26408;DHT22;14583;43.604;1.364;2023-02-08T06:32:38;3.40;99.90
26408;DHT22;14583;43.604;1.364;2023-02-08T06:35:04;3.40;99.90
26408;DHT22;14583;43.604;1.364;2023-02-08T06:37:30;3.40;99.90
26408;DHT22;14583;43.604;1.364;2023-02-08T06:39:55;3.40;99.90
26408;DHT22;14583;43.604;1.364;2023-02-08T06:42:21;3.40;99.90
26408;DHT22;14583;43.604;1.364;2023-02-08T06:44:47;3.50;99.90
26408;DHT22;14583;43.604;1.364;2023-02-08T06:47:14;3.50;99.90
26408;DHT22;14583;43.604;1.364;2023-02-08T06:49:40;3.50;99.90
26408;DHT22;14583;43.604;1.364;2023-02-08T06:52:06;3.50;99.90
26408;DHT22;14583;43.604;1.364;2023-02-08T06:54:32;3.60;99.90
26408;DHT22;14583;43.604;1.364;2023-02-08T06:56:57;3.50;99.90
26408;DHT22;14583;43.604;1.364;2023-02-08T06:59:23;3.50;99.90
26408;DHT22;14583;43.604;1.364;2023-02-08T07:01:49;3.50;99.90
26408;DHT22;14583;43.604;1.364;2023-02-08T07:04:15;3.50;99.90
26408;DHT22;14583;43.604;1.364;2023-02-08T07:06:41;3.50;99.90
26408;DHT22;14583;43.604;1.364;2023-02-08T07:09:07;3.50;99.90
26408;DHT22;14583;43.604;1.364;2023-02-08T07:11:32;3.60;99.90
26408;DHT22;14583;43.604;1.364;2023-02-08T07:13:58;3.60;99.90
26408;DHT22;14583;43.604;1.364;2023-02-08T07:16:24;3.50;99.90
26408;DHT22;14583;43.604;1.364;2023-02-08T07:18:50;3.50;99.90
26408;DHT22;14583;43.604;1.364;2023-02-08T07:21:16;3.50;99.90
26408;DHT22;14583;43.604;1.364;2023-02-08T07:23:41;3.40;99.90
26408;DHT22;14583;43.604;1.364;2023-02-08T07:26:09;3.50;99.90
26408;DHT22;14583;43.604;1.364;2023-02-08T07:28:37;3.40;99.90
26408;DHT22;14583;43.604;1.364;2023-02-08T07:31:13;3.50;99.90
26408;DHT22;14583;43.604;1.364;2023-02-08T07:33:40;3.50;99.90
26408;DHT22;14583;43.604;1.364;2023-02-08T07:36:06;3.50;99.90
26408;DHT22;14583;43.604;1.364;2023-02-08T07:38:33;3.50;99.90
26408;DHT22;14583;43.604;1.364;2023-02-08T07:41:06;3.50;99.90
26408;DHT22;14583;43.604;1.364;2023-02-08T07:43:34;3.40;99.90
26408;DHT22;14583;43.604;1.364;2023-02-08T07:46:07;3.40;99.90
26408;DHT22;14583;43.604;1.364;2023-02-08T07:48:33;3.40;99.90
26408;DHT22;14583;43.604;1.364;2023-02-08T07:50:59;3.40;99.90
26408;DHT22;14583;43.604;1.364;2023-02-08T07:53:24;3.40;99.90
26408;DHT22;14583;43.604;1.364;2023-02-08T07:55:50;3.40;99.90
26408;DHT22;14583;43.604;1.364;2023-02-08T07:58:16;3.50;99.90
26408;DHT22;14583;43.604;1.364;2023-02-08T08:00:41;3.50;99.90
26408;DHT22;14583;43.604;1.364;2023-02-08T08:03:07;3.60;99.90
26408;DHT22;14583;43.604;1.364;2023-02-08T08:05:33;3.60;99.90
26408;DHT22;14583;43.604;1.364;2023-02-08T08:07:58;3.60;99.90
26408;DHT22;14583;43.604;1.364;2023-02-08T08:10:24;3.60;99.90
26408;DHT22;14583;43.604;1.364;2023-02-08T08:12:50;3.70;99.90
26408;DHT22;14583;43.604;1.364;2023-02-08T08:15:15;3.60;99.90
26408;DHT22;14583;43.604;1.364;2023-02-08T08:17:42;3.70;99.90
26408;DHT22;14583;43.604;1.364;2023-02-08T08:20:10;3.70;99.90
26408;DHT22;14583;43.604;1.364;2023-02-08T08:22:36;3.70;99.90
26408;DHT22;14583;43.604;1.364;2023-02-08T08:25:02;3.80;99.90
26408;DHT22;14583;43.604;1.364;2023-02-08T08:27:28;3.80;99.90
26408;DHT22;14583;43.604;1.364;2023-02-08T08:29:54;3.90;99.90
26408;DHT22;14583;43.604;1.364;2023-02-08T08:32:19;3.90;99.90
26408;DHT22;14583;43.604;1.364;2023-02-08T08:34:45;3.90;99.90
26408;DHT22;14583;43.604;1.364;2023-02-08T08:37:11;3.90;99.90
26408;DHT22;14583;43.604;1.364;2023-02-08T08:39:37;4.00;99.90
26408;DHT22;14583;43.604;1.364;2023-02-08T08:42:03;4.20;99.90
26408;DHT22;14583;43.604;1.364;2023-02-08T08:44:29;4.10;99.90
26408;DHT22;14583;43.604;1.364;2023-02-08T08:46:56;4.10;99.90
26408;DHT22;14583;43.604;1.364;2023-02-08T08:49:23;4.20;99.90
26408;DHT22;14583;43.604;1.364;2023-02-08T08:51:49;4.30;99.90
26408;DHT22;14583;43.604;1.364;2023-02-08T08:54:16;4.30;99.90
26408;DHT22;14583;43.604;1.364;2023-02-08T08:56:42;4.30;99.90
26408;DHT22;14583;43.604;1.364;2023-02-08T08:59:08;4.40;99.90
26408;DHT22;14583;43.604;1.364;2023-02-08T09:01:34;4.50;99.90
26408;DHT22;14583;43.604;1.364;2023-02-08T09:04:00;4.40;99.90
26408;DHT22;14583;43.604;1.364;2023-02-08T09:06:26;4.50;99.90
26408;DHT22;14583;43.604;1.364;2023-02-08T09:08:52;4.60;99.90
26408;DHT22;14583;43.604;1.364;2023-02-08T09:11:17;4.50;99.90
26408;DHT22;14583;43.604;1.364;2023-02-08T09:13:43;4.60;99.90
26408;DHT22;14583;43.604;1.364;2023-02-08T09:16:15;4.60;99.90
26408;DHT22;14583;43.604;1.364;2023-02-08T09:18:41;4.70;99.90
26408;DHT22;14583;43.604;1.364;2023-02-08T09:21:09;4.70;99.90
26408;DHT22;14583;43.604;1.364;2023-02-08T09:23:35;4.70;99.90
26408;DHT22;14583;43.604;1.364;2023-02-08T09:26:02;4.80;99.90
26408;DHT22;14583;43.604;1.364;2023-02-08T09:28:28;5.00;99.90
26408;DHT22;14583;43.604;1.364;2023-02-08T09:30:54;5.10;99.90
26408;DHT22;14583;43.604;1.364;2023-02-08T09:33:20;5.10;99.90
26408;DHT22;14583;43.604;1.364;2023-02-08T09:35:45;5.20;99.90
26408;DHT22;14583;43.604;1.364;2023-02-08T09:38:11;5.20;99.90
26408;DHT22;14583;43.604;1.364;2023-02-08T09:40:45;5.30;99.90
26408;DHT22;14583;43.604;1.364;2023-02-08T09:43:38;5.30;99.90
26408;DHT22;14583;43.604;1.364;2023-02-08T09:46:20;5.30;99.90
26408;DHT22;14583;43.604;1.364;2023-02-08T09:48:49;5.50;99.90
26408;DHT22;14583;43.604;1.364;2023-02-08T09:51:32;5.50;99.90
26408;DHT22;14583;43.604;1.364;2023-02-08T09:56:46;5.40;99.90
26408;DHT22;14583;43.604;1.364;2023-02-08T09:59:23;5.50;99.90
26408;DHT22;14583;43.604;1.364;2023-02-08T10:02:09;5.60;99.90
26408;DHT22;14583;43.604;1.364;2023-02-08T10:07:17;5.60;99.90
26408;DHT22;14583;43.604;1.364;2023-02-08T10:09:42;5.60;99.90
26408;DHT22;14583;43.604;1.364;2023-02-08T10:23:02;5.80;99.90
26408;DHT22;14583;43.604;1.364;2023-02-08T10:28:36;5.90;99.90
26408;DHT22;14583;43.604;1.364;2023-02-08T10:36:55;6.10;99.90
26408;DHT22;14583;43.604;1.364;2023-02-08T10:39:28;6.20;99.90
26408;DHT22;14583;43.604;1.364;2023-02-08T10:41:54;6.20;99.90
26408;DHT22;14583;43.604;1.364;2023-02-08T10:47:26;6.30;99.90
26408;DHT22;14583;43.604;1.364;2023-02-08T10:52:41;6.50;99.90
26408;DHT22;14583;43.604;1.364;2023-02-08T10:55:13;6.40;99.90
26408;DHT22;14583;43.604;1.364;2023-02-08T10:57:40;6.50;99.90
26408;DHT22;14583;43.604;1.364;2023-02-08T11:00:16;6.60;99.90
26408;DHT22;14583;43.604;1.364;2023-02-08T11:02:43;6.60;99.90
26408;DHT22;14583;43.604;1.364;2023-02-08T11:07:43;6.60;99.90
26408;DHT22;14583;43.604;1.364;2023-02-08T11:13:18;6.80;99.90
26408;DHT22;14583;43.604;1.364;2023-02-08T11:20:52;7.10;99.90
26408;DHT22;14583;43.604;1.364;2023-02-08T11:23:20;7.20;99.90
26408;DHT22;14583;43.604;1.364;2023-02-08T11:25:47;7.30;99.90
26408;DHT22;14583;43.604;1.364;2023-02-08T11:28:29;7.30;99.90
26408;DHT22;14583;43.604;1.364;2023-02-08T11:31:01;7.30;99.90
26408;DHT22;14583;43.604;1.364;2023-02-08T11:33:33;7.30;99.90
26408;DHT22;14583;43.604;1.364;2023-02-08T11:36:07;7.30;99.90
26408;DHT22;14583;43.604;1.364;2023-02-08T11:38:41;7.40;99.90
26408;DHT22;14583;43.604;1.364;2023-02-08T11:41:15;7.50;99.90
26408;DHT22;14583;43.604;1.364;2023-02-08T11:43:41;7.60;99.90
26408;DHT22;14583;43.604;1.364;2023-02-08T11:46:07;7.80;99.90
26408;DHT22;14583;43.604;1.364;2023-02-08T11:48:44;7.90;99.90
26408;DHT22;14583;43.604;1.364;2023-02-08T11:51:23;8.00;99.90
26408;DHT22;14583;43.604;1.364;2023-02-08T11:53:49;8.10;99.90
26408;DHT22;14583;43.604;1.364;2023-02-08T11:56:18;8.20;99.90
26408;DHT22;14583;43.604;1.364;2023-02-08T12:01:41;8.70;99.90
26408;DHT22;14583;43.604;1.364;2023-02-08T12:04:09;8.80;99.90
26408;DHT22;14583;43.604;1.364;2023-02-08T12:06:40;8.80;99.90
26408;DHT22;14583;43.604;1.364;2023-02-08T12:20:45;9.10;99.90
26408;DHT22;14583;43.604;1.364;2023-02-08T12:33:18;9.30;99.90
26408;DHT22;14583;43.604;1.364;2023-02-08T12:41:12;9.50;99.90
26408;DHT22;14583;43.604;1.364;2023-02-08T12:47:29;9.50;99.90
26408;DHT22;14583;43.604;1.364;2023-02-08T12:50:00;9.40;99.90
26408;DHT22;14583;43.604;1.364;2023-02-08T12:52:35;9.50;99.90
26408;DHT22;14583;43.604;1.364;2023-02-08T12:55:27;9.60;99.90
26408;DHT22;14583;43.604;1.364;2023-02-08T12:57:59;9.60;99.90
26408;DHT22;14583;43.604;1.364;2023-02-08T13:00:31;9.70;99.90
26408;DHT22;14583;43.604;1.364;2023-02-08T13:05:56;9.70;99.90
26408;DHT22;14583;43.604;1.364;2023-02-08T13:11:21;9.90;99.90
26408;DHT22;14583;43.604;1.364;2023-02-08T13:14:07;9.90;99.90
26408;DHT22;14583;43.604;1.364;2023-02-08T13:16:43;10.00;99.90
26408;DHT22;14583;43.604;1.364;2023-02-08T13:21:40;10.00;99.90
26408;DHT22;14583;43.604;1.364;2023-02-08T13:24:34;10.00;99.90
26408;DHT22;14583;43.604;1.364;2023-02-08T13:27:01;9.90;99.90
26408;DHT22;14583;43.604;1.364;2023-02-08T13:29:28;9.80;99.90
26408;DHT22;14583;43.604;1.364;2023-02-08T13:35:20;9.90;99.90
26408;DHT22;14583;43.604;1.364;2023-02-08T13:38:34;10.00;99.90
26408;DHT22;14583;43.604;1.364;2023-02-08T13:40:41;10.10;99.90
26408;DHT22;14583;43.604;1.364;2023-02-08T13:43:23;10.30;99.90
26408;DHT22;14583;43.604;1.364;2023-02-08T13:45:51;10.40;99.90
26408;DHT22;14583;43.604;1.364;2023-02-08T13:48:18;10.40;99.90
26408;DHT22;14583;43.604;1.364;2023-02-08T13:50:51;10.50;99.90
26408;DHT22;14583;43.604;1.364;2023-02-08T13:54:03;10.60;99.90
26408;DHT22;14583;43.604;1.364;2023-02-08T13:56:08;10.70;99.90
26408;DHT22;14583;43.604;1.364;2023-02-08T14:01:19;10.70;99.90
26408;DHT22;14583;43.604;1.364;2023-02-08T14:04:13;10.70;99.90
26408;DHT22;14583;43.604;1.364;2023-02-08T14:06:31;10.70;99.90
26408;DHT22;14583;43.604;1.364;2023-02-08T14:09:19;10.80;99.90
26408;DHT22;14583;43.604;1.364;2023-02-08T14:11:52;10.90;99.90
26408;DHT22;14583;43.604;1.364;2023-02-08T14:14:33;10.80;99.90
26408;DHT22;14583;43.604;1.364;2023-02-08T14:19:32;10.90;99.90
26408;DHT22;14583;43.604;1.364;2023-02-08T14:30:07;10.90;99.90
26408;DHT22;14583;43.604;1.364;2023-02-08T14:32:52;10.80;99.90
26408;DHT22;14583;43.604;1.364;2023-02-08T14:35:26;10.90;99.90
26408;DHT22;14583;43.604;1.364;2023-02-08T14:45:48;11.30;99.90
26408;DHT22;14583;43.604;1.364;2023-02-08T14:48:18;11.40;99.90
26408;DHT22;14583;43.604;1.364;2023-02-08T14:53:43;11.20;99.90
26408;DHT22;14583;43.604;1.364;2023-02-08T14:58:54;11.50;99.90
26408;DHT22;14583;43.604;1.364;2023-02-08T15:04:01;12.10;99.90
26408;DHT22;14583;43.604;1.364;2023-02-08T15:09:30;12.10;99.90
26408;DHT22;14583;43.604;1.364;2023-02-08T15:12:00;12.40;99.90
26408;DHT22;14583;43.604;1.364;2023-02-08T15:14:28;12.30;99.90
26408;DHT22;14583;43.604;1.364;2023-02-08T15:16:55;12.90;99.90
26408;DHT22;14583;43.604;1.364;2023-02-08T15:19:36;16.80;97.90
26408;DHT22;14583;43.604;1.364;2023-02-08T15:24:58;21.90;88.80
26408;DHT22;14583;43.604;1.364;2023-02-08T15:27:31;24.10;74.00
26408;DHT22;14583;43.604;1.364;2023-02-08T15:29:57;25.30;71.50
26408;DHT22;14583;43.604;1.364;2023-02-08T15:32:26;26.50;67.20
26408;DHT22;14583;43.604;1.364;2023-02-08T15:35:00;27.10;62.70
26408;DHT22;14583;43.604;1.364;2023-02-08T15:37:30;24.70;62.80
26408;DHT22;14583;43.604;1.364;2023-02-08T15:39:58;25.10;64.30
26408;DHT22;14583;43.604;1.364;2023-02-08T15:42:34;23.30;65.10
26408;DHT22;14583;43.604;1.364;2023-02-08T15:45:02;23.30;63.90
26408;DHT22;14583;43.604;1.364;2023-02-08T15:47:35;23.10;63.20
26408;DHT22;14583;43.604;1.364;2023-02-08T15:50:06;23.30;64.30
26408;DHT22;14583;43.604;1.364;2023-02-08T15:52:34;23.60;63.40
26408;DHT22;14583;43.604;1.364;2023-02-08T15:55:14;23.50;63.20
26408;DHT22;14583;43.604;1.364;2023-02-08T16:00:35;22.90;64.40
26408;DHT22;14583;43.604;1.364;2023-02-08T16:03:17;23.60;63.60
26408;DHT22;14583;43.604;1.364;2023-02-08T16:05:56;23.50;62.40
26408;DHT22;14583;43.604;1.364;2023-02-08T16:08:30;23.90;62.40
26408;DHT22;14583;43.604;1.364;2023-02-08T16:11:34;23.40;62.20
26408;DHT22;14583;43.604;1.364;2023-02-08T16:14:03;22.60;63.80
26408;DHT22;14583;43.604;1.364;2023-02-08T16:16:43;21.00;63.10
26408;DHT22;14583;43.604;1.364;2023-02-08T16:19:21;20.00;67.50
26408;DHT22;14583;43.604;1.364;2023-02-08T16:21:47;18.00;70.40
26408;DHT22;14583;43.604;1.364;2023-02-08T16:29:36;16.20;75.90
26408;DHT22;14583;43.604;1.364;2023-02-08T16:34:45;16.30;77.30
26408;DHT22;14583;43.604;1.364;2023-02-08T16:37:31;14.40;78.20
26408;DHT22;14583;43.604;1.364;2023-02-08T16:40:00;13.30;82.70
26408;DHT22;14583;43.604;1.364;2023-02-08T16:42:35;13.20;84.70
26408;DHT22;14583;43.604;1.364;2023-02-08T16:47:44;12.50;86.10
26408;DHT22;14583;43.604;1.364;2023-02-08T16:50:22;12.20;87.50
26408;DHT22;14583;43.604;1.364;2023-02-08T16:52:58;11.80;89.30
26408;DHT22;14583;43.604;1.364;2023-02-08T16:55:28;11.50;90.40
26408;DHT22;14583;43.604;1.364;2023-02-08T16:57:58;11.20;90.90
26408;DHT22;14583;43.604;1.364;2023-02-08T17:00:25;10.60;91.90
26408;DHT22;14583;43.604;1.364;2023-02-08T17:02:52;10.30;92.50
26408;DHT22;14583;43.604;1.364;2023-02-08T17:05:20;10.20;93.20
26408;DHT22;14583;43.604;1.364;2023-02-08T17:07:46;9.90;93.50
26408;DHT22;14583;43.604;1.364;2023-02-08T17:10:22;9.80;94.00
26408;DHT22;14583;43.604;1.364;2023-02-08T17:12:51;9.70;94.70
26408;DHT22;14583;43.604;1.364;2023-02-08T17:15:20;9.60;95.10
26408;DHT22;14583;43.604;1.364;2023-02-08T17:17:47;9.40;95.60
26408;DHT22;14583;43.604;1.364;2023-02-08T17:20:25;9.10;96.10
26408;DHT22;14583;43.604;1.364;2023-02-08T17:22:54;8.80;97.00
26408;DHT22;14583;43.604;1.364;2023-02-08T17:25:20;8.70;97.40
26408;DHT22;14583;43.604;1.364;2023-02-08T17:27:52;8.60;97.90
26408;DHT22;14583;43.604;1.364;2023-02-08T17:30:21;8.50;98.20
26408;DHT22;14583;43.604;1.364;2023-02-08T17:32:48;8.30;98.80
26408;DHT22;14583;43.604;1.364;2023-02-08T17:35:15;8.20;99.30
26408;DHT22;14583;43.604;1.364;2023-02-08T17:37:46;8.20;99.60
26408;DHT22;14583;43.604;1.364;2023-02-08T17:40:13;8.20;99.70
26408;DHT22;14583;43.604;1.364;2023-02-08T17:42:42;8.10;99.90
26408;DHT22;14583;43.604;1.364;2023-02-08T17:45:09;8.10;99.90
26408;DHT22;14583;43.604;1.364;2023-02-08T17:47:35;8.00;99.90
26408;DHT22;14583;43.604;1.364;2023-02-08T17:50:07;7.90;99.90
26408;DHT22;14583;43.604;1.364;2023-02-08T17:52:34;8.10;99.90
26408;DHT22;14583;43.604;1.364;2023-02-08T17:55:08;8.00;99.90
26408;DHT22;14583;43.604;1.364;2023-02-08T17:57:36;7.90;99.90
26408;DHT22;14583;43.604;1.364;2023-02-08T18:00:06;7.90;99.90
26408;DHT22;14583;43.604;1.364;2023-02-08T18:02:34;7.90;99.90
26408;DHT22;14583;43.604;1.364;2023-02-08T18:05:00;7.80;99.90
26408;DHT22;14583;43.604;1.364;2023-02-08T18:07:29;7.70;99.90
26408;DHT22;14583;43.604;1.364;2023-02-08T18:09:56;7.60;99.90
26408;DHT22;14583;43.604;1.364;2023-02-08T18:12:24;7.60;99.90
26408;DHT22;14583;43.604;1.364;2023-02-08T18:14:54;7.60;99.90
26408;DHT22;14583;43.604;1.364;2023-02-08T18:17:22;7.70;99.90
26408;DHT22;14583;43.604;1.364;2023-02-08T18:19:48;7.60;99.90
26408;DHT22;14583;43.604;1.364;2023-02-08T18:22:14;7.50;99.90
26408;DHT22;14583;43.604;1.364;2023-02-08T18:24:45;7.60;99.90
26408;DHT22;14583;43.604;1.364;2023-02-08T18:27:30;7.60;99.90
26408;DHT22;14583;43.604;1.364;2023-02-08T18:29:56;7.60;99.90
26408;DHT22;14583;43.604;1.364;2023-02-08T18:32:22;7.60;99.90
26408;DHT22;14583;43.604;1.364;2023-02-08T18:34:50;7.50;99.90
26408;DHT22;14583;43.604;1.364;2023-02-08T18:37:19;7.40;99.90
26408;DHT22;14583;43.604;1.364;2023-02-08T18:39:48;7.40;99.90
26408;DHT22;14583;43.604;1.364;2023-02-08T18:42:13;7.40;99.90
26408;DHT22;14583;43.604;1.364;2023-02-08T18:44:39;7.30;99.90
26408;DHT22;14583;43.604;1.364;2023-02-08T18:47:06;7.40;99.90